sensor_id;sensor_type;location;lat;lon;timestamp;P1;durP1;ratioP1;P2;durP2;ratioP2
58685;SDS011;44465;53.206;-6.106;2022-07-05T00:00:38;13.77;;;3.88;;
58685;SDS011;44465;53.206;-6.106;2022-07-05T00:03:03;8.95;;;3.10;;
58685;SDS011;44465;53.206;-6.106;2022-07-05T00:05:29;10.80;;;3.13;;
58685;SDS011;44465;53.206;-6.106;2022-07-05T00:07:54;11.85;;;3.30;;
58685;SDS011;44465;53.206;-6.106;2022-07-05T00:10:20;12.25;;;3.35;;
58685;SDS011;44465;53.206;-6.106;2022-07-05T00:12:45;9.38;;;2.60;;
58685;SDS011;44465;53.206;-6.106;2022-07-05T00:15:10;10.35;;;3.10;;
58685;SDS011;44465;53.206;-6.106;2022-07-05T00:17:36;9.23;;;3.30;;
58685;SDS011;44465;53.206;-6.106;2022-07-05T00:20:02;9.20;;;2.88;;
58685;SDS011;44465;53.206;-6.106;2022-07-05T00:22:28;9.02;;;3.17;;
58685;SDS011;44465;53.206;-6.106;2022-07-05T00:24:54;6.68;;;2.80;;
58685;SDS011;44465;53.206;-6.106;2022-07-05T00:27:19;10.50;;;3.47;;
58685;SDS011;44465;53.206;-6.106;2022-07-05T00:29:45;7.18;;;2.78;;
58685;SDS011;44465;53.206;-6.106;2022-07-05T00:32:10;5.93;;;2.45;;
58685;SDS011;44465;53.206;-6.106;2022-07-05T00:34:36;4.55;;;2.53;;
58685;SDS011;44465;53.206;-6.106;2022-07-05T00:37:01;7.50;;;3.13;;
58685;SDS011;44465;53.206;-6.106;2022-07-05T00:39:27;11.07;;;2.60;;
58685;SDS011;44465;53.206;-6.106;2022-07-05T00:41:53;7.95;;;2.55;;
58685;SDS011;44465;53.206;-6.106;2022-07-05T00:44:27;9.27;;;3.08;;
58685;SDS011;44465;53.206;-6.106;2022-07-05T00:46:55;7.20;;;2.30;;
58685;SDS011;44465;53.206;-6.106;2022-07-05T00:49:21;11.15;;;2.65;;
58685;SDS011;44465;53.206;-6.106;2022-07-05T00:51:46;7.35;;;2.85;;
58685;SDS011;44465;53.206;-6.106;2022-07-05T00:54:12;7.65;;;2.20;;
58685;SDS011;44465;53.206;-6.106;2022-07-05T00:56:38;11.18;;;2.40;;
58685;SDS011;44465;53.206;-6.106;2022-07-05T00:59:03;10.25;;;2.75;;
58685;SDS011;44465;53.206;-6.106;2022-07-05T01:01:29;4.97;;;2.20;;
58685;SDS011;44465;53.206;-6.106;2022-07-05T01:03:54;5.07;;;2.13;;
58685;SDS011;44465;53.206;-6.106;2022-07-05T01:06:20;8.82;;;2.08;;
58685;SDS011;44465;53.206;-6.106;2022-07-05T01:08:45;7.22;;;1.85;;
58685;SDS011;44465;53.206;-6.106;2022-07-05T01:11:11;6.10;;;1.92;;
58685;SDS011;44465;53.206;-6.106;2022-07-05T01:13:38;5.65;;;1.90;;
58685;SDS011;44465;53.206;-6.106;2022-07-05T01:16:04;3.55;;;1.73;;
58685;SDS011;44465;53.206;-6.106;2022-07-05T01:18:30;6.38;;;2.00;;
58685;SDS011;44465;53.206;-6.106;2022-07-05T01:21:01;4.10;;;2.28;;
58685;SDS011;44465;53.206;-6.106;2022-07-05T01:23:28;5.35;;;2.22;;
58685;SDS011;44465;53.206;-6.106;2022-07-05T01:25:55;4.85;;;1.98;;
58685;SDS011;44465;53.206;-6.106;2022-07-05T01:28:23;4.15;;;1.98;;
58685;SDS011;44465;53.206;-6.106;2022-07-05T01:30:49;8.05;;;2.30;;
58685;SDS011;44465;53.206;-6.106;2022-07-05T01:33:16;3.58;;;1.75;;
58685;SDS011;44465;53.206;-6.106;2022-07-05T01:35:41;4.38;;;1.60;;
58685;SDS011;44465;53.206;-6.106;2022-07-05T01:38:07;5.32;;;1.90;;
58685;SDS011;44465;53.206;-6.106;2022-07-05T01:40:35;7.00;;;1.80;;
58685;SDS011;44465;53.206;-6.106;2022-07-05T01:43:02;7.03;;;2.05;;
58685;SDS011;44465;53.206;-6.106;2022-07-05T01:45:28;4.65;;;1.58;;
58685;SDS011;44465;53.206;-6.106;2022-07-05T01:48:10;5.60;;;1.70;;
58685;SDS011;44465;53.206;-6.106;2022-07-05T01:50:43;3.97;;;1.38;;
58685;SDS011;44465;53.206;-6.106;2022-07-05T01:53:14;5.22;;;1.55;;
58685;SDS011;44465;53.206;-6.106;2022-07-05T01:55:44;2.88;;;1.85;;
58685;SDS011;44465;53.206;-6.106;2022-07-05T01:58:10;4.50;;;2.00;;
58685;SDS011;44465;53.206;-6.106;2022-07-05T02:03:12;4.00;;;1.80;;
58685;SDS011;44465;53.206;-6.106;2022-07-05T02:05:39;4.95;;;1.75;;
58685;SDS011;44465;53.206;-6.106;2022-07-05T02:08:06;6.00;;;1.70;;
58685;SDS011;44465;53.206;-6.106;2022-07-05T02:10:34;4.65;;;1.63;;
58685;SDS011;44465;53.206;-6.106;2022-07-05T02:13:05;4.22;;;1.40;;
58685;SDS011;44465;53.206;-6.106;2022-07-05T02:15:33;3.95;;;1.42;;
58685;SDS011;44465;53.206;-6.106;2022-07-05T02:20:26;4.47;;;1.50;;
58685;SDS011;44465;53.206;-6.106;2022-07-05T02:22:53;3.17;;;1.90;;
58685;SDS011;44465;53.206;-6.106;2022-07-05T02:25:18;4.72;;;1.58;;
58685;SDS011;44465;53.206;-6.106;2022-07-05T02:27:45;3.03;;;1.30;;
58685;SDS011;44465;53.206;-6.106;2022-07-05T02:30:12;1.57;;;1.30;;
58685;SDS011;44465;53.206;-6.106;2022-07-05T02:32:39;2.95;;;1.20;;
58685;SDS011;44465;53.206;-6.106;2022-07-05T02:35:05;3.28;;;1.10;;
58685;SDS011;44465;53.206;-6.106;2022-07-05T02:37:33;3.33;;;1.25;;
58685;SDS011;44465;53.206;-6.106;2022-07-05T02:40:00;1.52;;;1.20;;
58685;SDS011;44465;53.206;-6.106;2022-07-05T02:42:28;3.55;;;1.50;;
58685;SDS011;44465;53.206;-6.106;2022-07-05T02:44:54;2.50;;;1.45;;
58685;SDS011;44465;53.206;-6.106;2022-07-05T02:47:21;3.60;;;1.53;;
58685;SDS011;44465;53.206;-6.106;2022-07-05T02:49:47;4.93;;;1.48;;
58685;SDS011;44465;53.206;-6.106;2022-07-05T02:52:13;2.25;;;1.23;;
58685;SDS011;44465;53.206;-6.106;2022-07-05T02:54:39;2.25;;;1.00;;
58685;SDS011;44465;53.206;-6.106;2022-07-05T02:57:05;2.70;;;1.15;;
58685;SDS011;44465;53.206;-6.106;2022-07-05T02:59:31;3.13;;;1.35;;
58685;SDS011;44465;53.206;-6.106;2022-07-05T03:01:57;3.72;;;1.15;;
58685;SDS011;44465;53.206;-6.106;2022-07-05T03:04:23;3.55;;;1.15;;
58685;SDS011;44465;53.206;-6.106;2022-07-05T03:06:54;2.63;;;1.23;;
58685;SDS011;44465;53.206;-6.106;2022-07-05T03:09:24;1.80;;;1.00;;
58685;SDS011;44465;53.206;-6.106;2022-07-05T03:11:50;1.42;;;1.08;;
58685;SDS011;44465;53.206;-6.106;2022-07-05T03:14:16;1.20;;;0.80;;
58685;SDS011;44465;53.206;-6.106;2022-07-05T03:16:43;1.88;;;0.90;;
58685;SDS011;44465;53.206;-6.106;2022-07-05T03:21:36;1.25;;;0.80;;
58685;SDS011;44465;53.206;-6.106;2022-07-05T03:24:01;1.77;;;0.90;;
58685;SDS011;44465;53.206;-6.106;2022-07-05T03:26:27;1.40;;;1.10;;
58685;SDS011;44465;53.206;-6.106;2022-07-05T03:28:53;3.28;;;1.35;;
58685;SDS011;44465;53.206;-6.106;2022-07-05T03:31:19;1.95;;;1.13;;
58685;SDS011;44465;53.206;-6.106;2022-07-05T03:33:45;2.30;;;1.30;;
58685;SDS011;44465;53.206;-6.106;2022-07-05T03:36:12;2.55;;;0.73;;
58685;SDS011;44465;53.206;-6.106;2022-07-05T03:38:40;1.10;;;1.00;;
58685;SDS011;44465;53.206;-6.106;2022-07-05T03:41:05;1.80;;;0.85;;
58685;SDS011;44465;53.206;-6.106;2022-07-05T03:43:31;1.90;;;0.88;;
58685;SDS011;44465;53.206;-6.106;2022-07-05T03:45:56;1.63;;;0.70;;
58685;SDS011;44465;53.206;-6.106;2022-07-05T03:48:25;1.13;;;1.00;;
58685;SDS011;44465;53.206;-6.106;2022-07-05T03:50:51;1.10;;;1.00;;
58685;SDS011;44465;53.206;-6.106;2022-07-05T03:53:17;4.00;;;1.10;;
58685;SDS011;44465;53.206;-6.106;2022-07-05T03:55:43;3.22;;;0.80;;
58685;SDS011;44465;53.206;-6.106;2022-07-05T03:58:09;1.52;;;0.80;;
58685;SDS011;44465;53.206;-6.106;2022-07-05T04:00:34;0.70;;;0.70;;
58685;SDS011;44465;53.206;-6.106;2022-07-05T04:03:03;1.48;;;0.70;;
58685;SDS011;44465;53.206;-6.106;2022-07-05T04:05:30;1.67;;;1.08;;
58685;SDS011;44465;53.206;-6.106;2022-07-05T04:07:56;1.33;;;0.73;;
58685;SDS011;44465;53.206;-6.106;2022-07-05T04:10:29;2.90;;;0.90;;
58685;SDS011;44465;53.206;-6.106;2022-07-05T04:12:56;2.47;;;0.90;;
58685;SDS011;44465;53.206;-6.106;2022-07-05T04:15:24;0.85;;;0.70;;
58685;SDS011;44465;53.206;-6.106;2022-07-05T04:17:52;1.45;;;0.57;;
58685;SDS011;44465;53.206;-6.106;2022-07-05T04:20:20;1.70;;;1.10;;
58685;SDS011;44465;53.206;-6.106;2022-07-05T04:22:47;2.42;;;0.70;;
58685;SDS011;44465;53.206;-6.106;2022-07-05T04:25:15;1.38;;;0.70;;
58685;SDS011;44465;53.206;-6.106;2022-07-05T04:27:49;1.85;;;0.80;;
58685;SDS011;44465;53.206;-6.106;2022-07-05T04:30:18;1.77;;;0.70;;
58685;SDS011;44465;53.206;-6.106;2022-07-05T04:32:45;1.23;;;0.60;;
58685;SDS011;44465;53.206;-6.106;2022-07-05T04:35:12;0.70;;;0.60;;
58685;SDS011;44465;53.206;-6.106;2022-07-05T04:37:39;1.33;;;0.80;;
58685;SDS011;44465;53.206;-6.106;2022-07-05T04:40:06;3.65;;;0.70;;
58685;SDS011;44465;53.206;-6.106;2022-07-05T04:42:34;0.98;;;0.70;;
58685;SDS011;44465;53.206;-6.106;2022-07-05T04:45:01;1.10;;;0.65;;
58685;SDS011;44465;53.206;-6.106;2022-07-05T04:47:27;2.67;;;0.85;;
58685;SDS011;44465;53.206;-6.106;2022-07-05T04:49:54;1.48;;;0.80;;
58685;SDS011;44465;53.206;-6.106;2022-07-05T04:52:22;1.13;;;0.70;;
58685;SDS011;44465;53.206;-6.106;2022-07-05T04:54:47;0.55;;;0.55;;
58685;SDS011;44465;53.206;-6.106;2022-07-05T04:57:13;0.60;;;0.60;;
58685;SDS011;44465;53.206;-6.106;2022-07-05T04:59:38;0.60;;;0.60;;
58685;SDS011;44465;53.206;-6.106;2022-07-05T05:02:04;1.17;;;0.77;;
58685;SDS011;44465;53.206;-6.106;2022-07-05T05:04:29;1.00;;;0.60;;
58685;SDS011;44465;53.206;-6.106;2022-07-05T05:06:55;0.90;;;0.77;;
58685;SDS011;44465;53.206;-6.106;2022-07-05T05:09:20;0.47;;;0.47;;
58685;SDS011;44465;53.206;-6.106;2022-07-05T05:11:46;1.58;;;0.55;;
58685;SDS011;44465;53.206;-6.106;2022-07-05T05:14:12;1.80;;;0.60;;
58685;SDS011;44465;53.206;-6.106;2022-07-05T05:16:38;1.27;;;0.70;;
58685;SDS011;44465;53.206;-6.106;2022-07-05T05:19:03;1.15;;;0.60;;
58685;SDS011;44465;53.206;-6.106;2022-07-05T05:21:29;0.88;;;0.40;;
58685;SDS011;44465;53.206;-6.106;2022-07-05T05:23:54;1.10;;;0.50;;
58685;SDS011;44465;53.206;-6.106;2022-07-05T05:26:20;1.38;;;0.40;;
58685;SDS011;44465;53.206;-6.106;2022-07-05T05:28:45;1.10;;;0.70;;
58685;SDS011;44465;53.206;-6.106;2022-07-05T05:31:10;0.70;;;0.70;;
58685;SDS011;44465;53.206;-6.106;2022-07-05T05:33:36;0.82;;;0.82;;
58685;SDS011;44465;53.206;-6.106;2022-07-05T05:36:02;2.28;;;0.68;;
58685;SDS011;44465;53.206;-6.106;2022-07-05T05:38:27;0.80;;;0.60;;
58685;SDS011;44465;53.206;-6.106;2022-07-05T05:40:53;0.75;;;0.50;;
58685;SDS011;44465;53.206;-6.106;2022-07-05T05:43:19;0.40;;;0.38;;
58685;SDS011;44465;53.206;-6.106;2022-07-05T05:45:44;0.47;;;0.40;;
58685;SDS011;44465;53.206;-6.106;2022-07-05T05:48:10;0.47;;;0.40;;
58685;SDS011;44465;53.206;-6.106;2022-07-05T05:50:36;0.65;;;0.50;;
58685;SDS011;44465;53.206;-6.106;2022-07-05T05:53:04;0.85;;;0.65;;
58685;SDS011;44465;53.206;-6.106;2022-07-05T05:55:30;0.40;;;0.40;;
58685;SDS011;44465;53.206;-6.106;2022-07-05T05:57:56;0.50;;;0.50;;
58685;SDS011;44465;53.206;-6.106;2022-07-05T06:00:34;0.40;;;0.40;;
58685;SDS011;44465;53.206;-6.106;2022-07-05T06:03:00;0.50;;;0.45;;
58685;SDS011;44465;53.206;-6.106;2022-07-05T06:05:26;2.65;;;0.52;;
58685;SDS011;44465;53.206;-6.106;2022-07-05T06:07:52;0.45;;;0.38;;
58685;SDS011;44465;53.206;-6.106;2022-07-05T06:10:28;0.70;;;0.50;;
58685;SDS011;44465;53.206;-6.106;2022-07-05T06:12:57;0.30;;;0.30;;
58685;SDS011;44465;53.206;-6.106;2022-07-05T06:17:49;0.30;;;0.30;;
58685;SDS011;44465;53.206;-6.106;2022-07-05T06:20:19;0.70;;;0.50;;
58685;SDS011;44465;53.206;-6.106;2022-07-05T06:22:50;0.50;;;0.50;;
58685;SDS011;44465;53.206;-6.106;2022-07-05T06:25:16;0.68;;;0.43;;
58685;SDS011;44465;53.206;-6.106;2022-07-05T06:27:42;1.15;;;0.43;;
58685;SDS011;44465;53.206;-6.106;2022-07-05T06:30:10;0.30;;;0.30;;
58685;SDS011;44465;53.206;-6.106;2022-07-05T06:32:38;1.77;;;0.40;;
58685;SDS011;44465;53.206;-6.106;2022-07-05T06:35:03;0.40;;;0.40;;
58685;SDS011;44465;53.206;-6.106;2022-07-05T06:37:45;0.30;;;0.30;;
58685;SDS011;44465;53.206;-6.106;2022-07-05T06:42:45;0.30;;;0.30;;
58685;SDS011;44465;53.206;-6.106;2022-07-05T06:45:13;0.30;;;0.30;;
58685;SDS011;44465;53.206;-6.106;2022-07-05T06:47:38;0.45;;;0.40;;
58685;SDS011;44465;53.206;-6.106;2022-07-05T06:50:04;0.28;;;0.25;;
58685;SDS011;44465;53.206;-6.106;2022-07-05T06:52:31;0.75;;;0.60;;
58685;SDS011;44465;53.206;-6.106;2022-07-05T06:54:58;2.28;;;0.50;;
58685;SDS011;44465;53.206;-6.106;2022-07-05T06:57:24;0.25;;;0.25;;
58685;SDS011;44465;53.206;-6.106;2022-07-05T06:59:50;0.95;;;0.45;;
58685;SDS011;44465;53.206;-6.106;2022-07-05T07:02:16;0.40;;;0.40;;
58685;SDS011;44465;53.206;-6.106;2022-07-05T07:04:42;0.30;;;0.30;;
58685;SDS011;44465;53.206;-6.106;2022-07-05T07:07:08;0.88;;;0.40;;
58685;SDS011;44465;53.206;-6.106;2022-07-05T07:10:00;0.22;;;0.22;;
58685;SDS011;44465;53.206;-6.106;2022-07-05T07:12:26;0.30;;;0.20;;
58685;SDS011;44465;53.206;-6.106;2022-07-05T07:14:52;0.43;;;0.40;;
58685;SDS011;44465;53.206;-6.106;2022-07-05T07:17:18;1.40;;;0.40;;
58685;SDS011;44465;53.206;-6.106;2022-07-05T07:19:44;0.45;;;0.30;;
58685;SDS011;44465;53.206;-6.106;2022-07-05T07:22:09;0.85;;;0.32;;
58685;SDS011;44465;53.206;-6.106;2022-07-05T07:24:35;0.63;;;0.55;;
58685;SDS011;44465;53.206;-6.106;2022-07-05T07:27:00;0.40;;;0.30;;
58685;SDS011;44465;53.206;-6.106;2022-07-05T07:29:33;0.40;;;0.40;;
58685;SDS011;44465;53.206;-6.106;2022-07-05T07:32:00;1.65;;;0.55;;
58685;SDS011;44465;53.206;-6.106;2022-07-05T07:34:28;0.32;;;0.32;;
58685;SDS011;44465;53.206;-6.106;2022-07-05T07:36:54;38.60;;;5.07;;
58685;SDS011;44465;53.206;-6.106;2022-07-05T07:39:20;13.18;;;2.63;;
58685;SDS011;44465;53.206;-6.106;2022-07-05T07:41:46;6.97;;;1.60;;
58685;SDS011;44465;53.206;-6.106;2022-07-05T07:44:12;17.08;;;2.45;;
58685;SDS011;44465;53.206;-6.106;2022-07-05T07:46:38;7.03;;;1.40;;
58685;SDS011;44465;53.206;-6.106;2022-07-05T07:49:09;12.13;;;1.95;;
58685;SDS011;44465;53.206;-6.106;2022-07-05T07:51:36;29.83;;;3.03;;
58685;SDS011;44465;53.206;-6.106;2022-07-05T07:54:02;10.90;;;1.30;;
58685;SDS011;44465;53.206;-6.106;2022-07-05T07:56:27;14.88;;;2.25;;
58685;SDS011;44465;53.206;-6.106;2022-07-05T07:58:53;13.30;;;2.10;;
58685;SDS011;44465;53.206;-6.106;2022-07-05T08:01:18;19.13;;;3.20;;
58685;SDS011;44465;53.206;-6.106;2022-07-05T08:03:44;21.60;;;3.50;;
58685;SDS011;44465;53.206;-6.106;2022-07-05T08:06:10;31.80;;;5.80;;
58685;SDS011;44465;53.206;-6.106;2022-07-05T08:08:37;37.00;;;8.63;;
58685;SDS011;44465;53.206;-6.106;2022-07-05T08:11:04;45.70;;;13.75;;
58685;SDS011;44465;53.206;-6.106;2022-07-05T08:13:30;60.97;;;22.27;;
58685;SDS011;44465;53.206;-6.106;2022-07-05T08:15:57;65.28;;;22.38;;
58685;SDS011;44465;53.206;-6.106;2022-07-05T08:18:23;58.78;;;19.77;;
58685;SDS011;44465;53.206;-6.106;2022-07-05T08:21:07;60.08;;;16.98;;
58685;SDS011;44465;53.206;-6.106;2022-07-05T08:23:51;44.25;;;14.30;;
58685;SDS011;44465;53.206;-6.106;2022-07-05T08:26:16;54.45;;;15.85;;
58685;SDS011;44465;53.206;-6.106;2022-07-05T08:28:42;50.58;;;15.00;;
58685;SDS011;44465;53.206;-6.106;2022-07-05T08:31:07;46.33;;;14.98;;
58685;SDS011;44465;53.206;-6.106;2022-07-05T08:33:33;42.47;;;13.05;;
58685;SDS011;44465;53.206;-6.106;2022-07-05T08:35:59;44.22;;;14.00;;
58685;SDS011;44465;53.206;-6.106;2022-07-05T08:38:24;37.92;;;13.02;;
58685;SDS011;44465;53.206;-6.106;2022-07-05T08:40:50;38.92;;;12.80;;
58685;SDS011;44465;53.206;-6.106;2022-07-05T08:43:17;39.83;;;11.20;;
58685;SDS011;44465;53.206;-6.106;2022-07-05T08:45:43;29.88;;;10.35;;
58685;SDS011;44465;53.206;-6.106;2022-07-05T08:48:10;29.05;;;8.95;;
58685;SDS011;44465;53.206;-6.106;2022-07-05T08:50:36;33.58;;;9.02;;
58685;SDS011;44465;53.206;-6.106;2022-07-05T08:53:04;35.85;;;9.13;;
58685;SDS011;44465;53.206;-6.106;2022-07-05T08:55:31;29.33;;;9.02;;
58685;SDS011;44465;53.206;-6.106;2022-07-05T08:57:57;29.42;;;8.05;;
58685;SDS011;44465;53.206;-6.106;2022-07-05T09:00:23;30.50;;;8.68;;
58685;SDS011;44465;53.206;-6.106;2022-07-05T09:02:49;28.05;;;8.45;;
58685;SDS011;44465;53.206;-6.106;2022-07-05T09:05:15;19.83;;;7.05;;
58685;SDS011;44465;53.206;-6.106;2022-07-05T09:10:13;19.63;;;7.28;;
58685;SDS011;44465;53.206;-6.106;2022-07-05T09:12:40;19.17;;;6.40;;
58685;SDS011;44465;53.206;-6.106;2022-07-05T09:15:06;21.23;;;6.45;;
58685;SDS011;44465;53.206;-6.106;2022-07-05T09:17:32;16.90;;;5.82;;
58685;SDS011;44465;53.206;-6.106;2022-07-05T09:20:04;25.08;;;6.68;;
58685;SDS011;44465;53.206;-6.106;2022-07-05T09:22:45;21.33;;;6.63;;
58685;SDS011;44465;53.206;-6.106;2022-07-05T09:27:47;20.95;;;6.22;;
58685;SDS011;44465;53.206;-6.106;2022-07-05T09:30:25;13.63;;;5.05;;
58685;SDS011;44465;53.206;-6.106;2022-07-05T09:35:38;16.00;;;5.10;;
58685;SDS011;44465;53.206;-6.106;2022-07-05T09:38:05;15.48;;;4.38;;
58685;SDS011;44465;53.206;-6.106;2022-07-05T09:40:47;16.88;;;4.07;;
58685;SDS011;44465;53.206;-6.106;2022-07-05T09:43:15;14.55;;;4.28;;
58685;SDS011;44465;53.206;-6.106;2022-07-05T09:48:28;12.80;;;4.35;;
58685;SDS011;44465;53.206;-6.106;2022-07-05T09:51:04;10.90;;;3.78;;
58685;SDS011;44465;53.206;-6.106;2022-07-05T09:53:45;11.73;;;3.53;;
58685;SDS011;44465;53.206;-6.106;2022-07-05T09:56:13;12.90;;;4.20;;
58685;SDS011;44465;53.206;-6.106;2022-07-05T09:58:39;10.13;;;3.42;;
58685;SDS011;44465;53.206;-6.106;2022-07-05T10:01:23;11.38;;;3.42;;
58685;SDS011;44465;53.206;-6.106;2022-07-05T10:03:56;11.38;;;3.22;;
58685;SDS011;44465;53.206;-6.106;2022-07-05T10:06:29;12.23;;;3.65;;
58685;SDS011;44465;53.206;-6.106;2022-07-05T10:08:57;9.73;;;3.75;;
58685;SDS011;44465;53.206;-6.106;2022-07-05T10:11:24;8.57;;;3.40;;
58685;SDS011;44465;53.206;-6.106;2022-07-05T10:13:50;8.88;;;3.20;;
58685;SDS011;44465;53.206;-6.106;2022-07-05T10:16:17;7.72;;;3.25;;
58685;SDS011;44465;53.206;-6.106;2022-07-05T10:18:51;12.05;;;3.33;;
58685;SDS011;44465;53.206;-6.106;2022-07-05T10:21:18;7.72;;;2.92;;
58685;SDS011;44465;53.206;-6.106;2022-07-05T10:23:48;7.68;;;2.63;;
58685;SDS011;44465;53.206;-6.106;2022-07-05T10:26:20;6.80;;;2.90;;
58685;SDS011;44465;53.206;-6.106;2022-07-05T10:28:48;8.60;;;3.25;;
58685;SDS011;44465;53.206;-6.106;2022-07-05T10:31:17;9.07;;;3.13;;
58685;SDS011;44465;53.206;-6.106;2022-07-05T10:33:43;5.70;;;2.30;;
58685;SDS011;44465;53.206;-6.106;2022-07-05T10:36:09;7.85;;;3.08;;
58685;SDS011;44465;53.206;-6.106;2022-07-05T10:38:36;6.20;;;2.65;;
58685;SDS011;44465;53.206;-6.106;2022-07-05T10:41:04;5.88;;;2.33;;
58685;SDS011;44465;53.206;-6.106;2022-07-05T10:43:32;8.30;;;2.50;;
58685;SDS011;44465;53.206;-6.106;2022-07-05T10:45:58;5.22;;;2.70;;
58685;SDS011;44465;53.206;-6.106;2022-07-05T10:48:25;6.10;;;2.05;;
58685;SDS011;44465;53.206;-6.106;2022-07-05T10:50:52;5.95;;;2.05;;
58685;SDS011;44465;53.206;-6.106;2022-07-05T10:55:58;4.95;;;2.00;;
58685;SDS011;44465;53.206;-6.106;2022-07-05T11:03:37;5.30;;;1.98;;
58685;SDS011;44465;53.206;-6.106;2022-07-05T11:11:34;3.92;;;1.67;;
58685;SDS011;44465;53.206;-6.106;2022-07-05T11:14:04;5.40;;;2.20;;
58685;SDS011;44465;53.206;-6.106;2022-07-05T11:17:32;5.68;;;1.55;;
58685;SDS011;44465;53.206;-6.106;2022-07-05T11:22:39;2.97;;;1.73;;
58685;SDS011;44465;53.206;-6.106;2022-07-05T11:25:27;3.03;;;1.70;;
58685;SDS011;44465;53.206;-6.106;2022-07-05T11:27:59;4.40;;;2.08;;
58685;SDS011;44465;53.206;-6.106;2022-07-05T11:30:47;4.03;;;1.70;;
58685;SDS011;44465;53.206;-6.106;2022-07-05T11:33:34;4.95;;;2.10;;
58685;SDS011;44465;53.206;-6.106;2022-07-05T11:36:02;3.78;;;1.60;;
58685;SDS011;44465;53.206;-6.106;2022-07-05T11:38:29;5.05;;;1.60;;
58685;SDS011;44465;53.206;-6.106;2022-07-05T11:41:05;3.67;;;2.10;;
58685;SDS011;44465;53.206;-6.106;2022-07-05T11:43:36;4.22;;;1.63;;
58685;SDS011;44465;53.206;-6.106;2022-07-05T11:46:01;3.85;;;1.23;;
58685;SDS011;44465;53.206;-6.106;2022-07-05T11:48:28;4.63;;;1.48;;
58685;SDS011;44465;53.206;-6.106;2022-07-05T11:50:54;3.63;;;1.30;;
58685;SDS011;44465;53.206;-6.106;2022-07-05T11:53:29;4.85;;;1.60;;
58685;SDS011;44465;53.206;-6.106;2022-07-05T11:55:59;3.92;;;1.75;;
58685;SDS011;44465;53.206;-6.106;2022-07-05T11:58:32;4.43;;;1.33;;
58685;SDS011;44465;53.206;-6.106;2022-07-05T12:00:58;5.20;;;1.80;;
58685;SDS011;44465;53.206;-6.106;2022-07-05T12:03:24;3.50;;;1.65;;
58685;SDS011;44465;53.206;-6.106;2022-07-05T12:05:50;3.17;;;1.63;;
58685;SDS011;44465;53.206;-6.106;2022-07-05T12:08:23;7.70;;;1.88;;
58685;SDS011;44465;53.206;-6.106;2022-07-05T12:10:50;1.30;;;1.05;;
58685;SDS011;44465;53.206;-6.106;2022-07-05T12:13:47;3.20;;;1.35;;
58685;SDS011;44465;53.206;-6.106;2022-07-05T12:16:14;2.15;;;1.38;;
58685;SDS011;44465;53.206;-6.106;2022-07-05T12:18:48;3.60;;;1.83;;
58685;SDS011;44465;53.206;-6.106;2022-07-05T12:21:14;1.98;;;1.27;;
58685;SDS011;44465;53.206;-6.106;2022-07-05T12:23:43;5.05;;;2.08;;
58685;SDS011;44465;53.206;-6.106;2022-07-05T12:26:12;2.15;;;1.23;;
58685;SDS011;44465;53.206;-6.106;2022-07-05T12:28:38;3.75;;;1.45;;
58685;SDS011;44465;53.206;-6.106;2022-07-05T12:31:18;2.00;;;1.15;;
58685;SDS011;44465;53.206;-6.106;2022-07-05T12:33:43;1.35;;;1.25;;
58685;SDS011;44465;53.206;-6.106;2022-07-05T12:36:16;2.95;;;1.20;;
58685;SDS011;44465;53.206;-6.106;2022-07-05T12:38:44;2.85;;;1.15;;
58685;SDS011;44465;53.206;-6.106;2022-07-05T12:41:10;2.38;;;1.17;;
58685;SDS011;44465;53.206;-6.106;2022-07-05T12:43:55;3.05;;;1.02;;
58685;SDS011;44465;53.206;-6.106;2022-07-05T12:46:21;3.25;;;1.40;;
58685;SDS011;44465;53.206;-6.106;2022-07-05T12:49:01;3.50;;;1.00;;
58685;SDS011;44465;53.206;-6.106;2022-07-05T12:51:34;4.55;;;1.27;;
58685;SDS011;44465;53.206;-6.106;2022-07-05T12:54:00;5.78;;;2.25;;
58685;SDS011;44465;53.206;-6.106;2022-07-05T12:56:49;2.80;;;1.15;;
58685;SDS011;44465;53.206;-6.106;2022-07-05T12:59:33;6.22;;;1.73;;
58685;SDS011;44465;53.206;-6.106;2022-07-05T13:01:59;3.78;;;1.45;;
58685;SDS011;44465;53.206;-6.106;2022-07-05T13:04:25;7.80;;;1.60;;
58685;SDS011;44465;53.206;-6.106;2022-07-05T13:14:49;2.47;;;1.00;;
58685;SDS011;44465;53.206;-6.106;2022-07-05T13:17:20;3.22;;;1.27;;
58685;SDS011;44465;53.206;-6.106;2022-07-05T13:19:46;3.80;;;1.15;;
58685;SDS011;44465;53.206;-6.106;2022-07-05T13:22:13;4.30;;;1.30;;
58685;SDS011;44465;53.206;-6.106;2022-07-05T13:24:38;4.13;;;1.63;;
58685;SDS011;44465;53.206;-6.106;2022-07-05T13:27:05;1.65;;;1.35;;
58685;SDS011;44465;53.206;-6.106;2022-07-05T13:29:31;1.30;;;1.20;;
58685;SDS011;44465;53.206;-6.106;2022-07-05T13:31:57;2.70;;;1.17;;
58685;SDS011;44465;53.206;-6.106;2022-07-05T13:34:23;1.52;;;1.20;;
58685;SDS011;44465;53.206;-6.106;2022-07-05T13:36:49;1.85;;;1.10;;
58685;SDS011;44465;53.206;-6.106;2022-07-05T13:39:15;3.15;;;1.20;;
58685;SDS011;44465;53.206;-6.106;2022-07-05T13:41:40;1.73;;;1.35;;
58685;SDS011;44465;53.206;-6.106;2022-07-05T13:44:06;4.95;;;1.60;;
58685;SDS011;44465;53.206;-6.106;2022-07-05T13:46:31;5.45;;;1.98;;
58685;SDS011;44465;53.206;-6.106;2022-07-05T13:48:57;3.38;;;1.90;;
58685;SDS011;44465;53.206;-6.106;2022-07-05T13:51:22;9.98;;;1.73;;
58685;SDS011;44465;53.206;-6.106;2022-07-05T13:53:48;8.32;;;1.75;;
58685;SDS011;44465;53.206;-6.106;2022-07-05T13:56:13;5.32;;;1.15;;
58685;SDS011;44465;53.206;-6.106;2022-07-05T13:58:39;5.57;;;1.38;;
58685;SDS011;44465;53.206;-6.106;2022-07-05T14:01:05;4.63;;;1.60;;
58685;SDS011;44465;53.206;-6.106;2022-07-05T14:03:30;20.42;;;2.30;;
58685;SDS011;44465;53.206;-6.106;2022-07-05T14:05:56;13.32;;;2.40;;
58685;SDS011;44465;53.206;-6.106;2022-07-05T14:08:22;10.45;;;1.88;;
58685;SDS011;44465;53.206;-6.106;2022-07-05T14:10:52;16.15;;;2.22;;
58685;SDS011;44465;53.206;-6.106;2022-07-05T14:13:19;4.05;;;1.77;;
58685;SDS011;44465;53.206;-6.106;2022-07-05T14:15:45;10.80;;;2.08;;
58685;SDS011;44465;53.206;-6.106;2022-07-05T14:18:13;6.22;;;1.90;;
58685;SDS011;44465;53.206;-6.106;2022-07-05T14:20:39;5.65;;;1.88;;
58685;SDS011;44465;53.206;-6.106;2022-07-05T14:23:05;5.40;;;1.80;;
58685;SDS011;44465;53.206;-6.106;2022-07-05T14:25:30;7.70;;;1.60;;
58685;SDS011;44465;53.206;-6.106;2022-07-05T14:27:56;8.25;;;1.67;;
58685;SDS011;44465;53.206;-6.106;2022-07-05T14:30:21;8.73;;;1.48;;
58685;SDS011;44465;53.206;-6.106;2022-07-05T14:32:48;5.32;;;1.98;;
58685;SDS011;44465;53.206;-6.106;2022-07-05T14:35:14;4.75;;;1.63;;
58685;SDS011;44465;53.206;-6.106;2022-07-05T14:37:40;9.00;;;1.80;;
58685;SDS011;44465;53.206;-6.106;2022-07-05T14:40:06;6.70;;;1.70;;
58685;SDS011;44465;53.206;-6.106;2022-07-05T14:42:32;8.57;;;1.95;;
58685;SDS011;44465;53.206;-6.106;2022-07-05T14:44:58;5.93;;;1.58;;
58685;SDS011;44465;53.206;-6.106;2022-07-05T14:47:24;9.07;;;1.55;;
58685;SDS011;44465;53.206;-6.106;2022-07-05T14:52:17;5.15;;;1.45;;
58685;SDS011;44465;53.206;-6.106;2022-07-05T14:54:43;3.28;;;1.23;;
58685;SDS011;44465;53.206;-6.106;2022-07-05T14:57:08;4.32;;;1.70;;
58685;SDS011;44465;53.206;-6.106;2022-07-05T14:59:33;7.32;;;1.60;;
58685;SDS011;44465;53.206;-6.106;2022-07-05T15:01:59;3.55;;;1.10;;
58685;SDS011;44465;53.206;-6.106;2022-07-05T15:04:24;4.47;;;1.65;;
58685;SDS011;44465;53.206;-6.106;2022-07-05T15:06:50;5.03;;;1.52;;
58685;SDS011;44465;53.206;-6.106;2022-07-05T15:09:15;3.33;;;1.50;;
58685;SDS011;44465;53.206;-6.106;2022-07-05T15:11:41;5.05;;;1.50;;
58685;SDS011;44465;53.206;-6.106;2022-07-05T15:14:06;4.00;;;1.52;;
58685;SDS011;44465;53.206;-6.106;2022-07-05T15:16:31;6.40;;;1.40;;
58685;SDS011;44465;53.206;-6.106;2022-07-05T15:18:57;2.03;;;1.00;;
58685;SDS011;44465;53.206;-6.106;2022-07-05T15:21:24;2.60;;;1.20;;
58685;SDS011;44465;53.206;-6.106;2022-07-05T15:23:49;5.82;;;1.55;;